Pandora, Colorado
Current Conditions -  °F | °C
As of 2:55 PM on Tuesday 25 Nov 2014 (Local Time) from KTEX Reporting Station
Overcast Overcast  
Wind Chill: 19°   Ceiling: 3400
Heat Index: 26°   Visibility: 10mi
Dew Point: 18°   Wind: 7mph
Humidity: 70%   Direction: 90°E
Pressure: 30.35"   Gusts: NA
Location:  37.9189°N, 107.878°W
Report Text: KTEX 252155Z AUTO 09006KT 10SM OVC034 M03/M08 A3035 RMK AO2 T10321079
Loading
Personal Weather Stations






























Interactive Weather Map New forecast layout! Learn more

10-Day Weather Forecast

Advertisements
Track Severe Weather on mobile